Time;durP1;ratioP1;P1;durP2;ratioP2;P2;SDS_P1;SDS_P2;PMS_P1;PMS_P2;Temp;Humidity;BMP_temperature;BMP_pressure;BME280_temperature;BME280_humidity;BME280_pressure;Samples;Min_cycle;Max_cycle;Signal;HPM_P1;HPM_P2
2023/03/30 00:01:00;;;;;;;;;2.00;1.00;;;;;18.56;81.47;100686.66;4996391;28;46922;-76
2023/03/30 00:03:26;;;;;;;;;2.67;1.00;;;;;18.56;81.67;100684.88;4977830;28;46772;-76
2023/03/30 00:05:55;;;;;;;;;2.67;1.33;;;;;18.54;81.26;100664.44;4992537;28;45356;-75
2023/03/30 00:08:27;;;;;;;;;1.67;1.00;;;;;18.55;82.20;100629.63;4996604;28;45255;-76
2023/03/30 00:10:54;;;;;;;;;2.33;1.00;;;;;18.56;83.93;100635.84;4995024;28;47597;-76
2023/03/30 00:13:20;;;;;;;;;2.00;2.00;;;;;18.52;86.06;100619.00;4996083;28;45397;-76
2023/03/30 00:15:45;;;;;;;;;1.00;1.00;;;;;18.50;85.71;100642.22;4992882;28;45540;-76
2023/03/30 00:18:10;;;;;;;;;1.00;1.00;;;;;18.47;86.38;100628.94;4993659;28;64754;-75
2023/03/30 00:20:36;;;;;;;;;4.67;2.00;;;;;18.45;87.38;100621.88;4995155;28;57837;-76
2023/03/30 00:23:01;;;;;;;;;2.00;2.00;;;;;18.38;86.92;100606.91;4977876;28;45569;-76
2023/03/30 00:25:27;;;;;;;;;1.00;1.00;;;;;18.33;87.89;100602.56;4994865;28;56286;-76
2023/03/30 00:27:52;;;;;;;;;3.67;2.00;;;;;18.28;87.52;100607.13;4993894;28;45394;-76
2023/03/30 00:30:18;;;;;;;;;3.00;2.00;;;;;18.25;88.55;100604.50;4993374;28;45704;-76
2023/03/30 00:32:46;;;;;;;;;2.67;2.67;;;;;18.25;89.24;100607.19;4978624;28;45423;-76
2023/03/30 00:35:12;;;;;;;;;2.00;2.00;;;;;18.23;89.33;100581.44;4990072;28;45424;-76
2023/03/30 00:37:37;;;;;;;;;5.00;1.00;;;;;18.22;89.22;100583.22;4978347;28;45729;-76
2023/03/30 00:40:06;;;;;;;;;2.00;2.00;;;;;18.20;89.56;100579.69;4996027;28;45850;-76
2023/03/30 00:42:36;;;;;;;;;2.00;2.00;;;;;18.19;90.24;100588.63;4995067;28;45363;-76
2023/03/30 00:45:22;;;;;;;;;1.00;1.00;;;;;18.20;90.17;100592.19;4995835;28;45352;-76
2023/03/30 00:47:50;;;;;;;;;3.67;2.33;;;;;18.19;91.03;100593.97;4996125;28;45436;-76
2023/03/30 00:50:20;;;;;;;;;1.33;1.33;;;;;18.20;91.75;100595.72;4995804;28;46445;-78
2023/03/30 00:52:47;;;;;;;;;2.33;2.00;;;;;18.20;91.47;100617.13;4972131;28;45548;-76
2023/03/30 00:55:12;;;;;;;;;2.00;2.00;;;;;18.19;91.75;100636.75;4977125;28;45544;-75
2023/03/30 00:57:40;;;;;;;;;2.67;2.33;;;;;18.18;91.80;100616.28;4993096;28;46270;-76
2023/03/30 01:00:07;;;;;;;;;2.00;2.00;;;;;18.17;92.46;100609.19;4966080;28;47636;-75
2023/03/30 01:02:36;;;;;;;;;3.00;2.00;;;;;18.15;91.89;100599.44;4994279;28;45497;-76
2023/03/30 01:05:03;;;;;;;;;1.00;1.00;;;;;18.13;92.41;100609.28;4989728;28;45409;-76
2023/03/30 01:07:30;;;;;;;;;2.00;2.00;;;;;18.11;92.67;100612.00;4995581;28;45436;-75
2023/03/30 01:09:56;;;;;;;;;3.33;2.00;;;;;18.08;91.92;100606.72;4977995;28;47166;-76
2023/03/30 01:12:21;;;;;;;;;2.00;2.00;;;;;18.06;92.93;100597.88;4973370;28;45551;-76
2023/03/30 01:14:47;;;;;;;;;3.00;1.00;;;;;18.06;92.90;100619.25;4976956;28;63538;-76
2023/03/30 01:17:28;;;;;;;;;4.67;3.00;;;;;18.01;92.72;100610.47;4986906;28;45273;-75
2023/03/30 01:20:44;;;;;;;;;1.00;1.00;;;;;18.02;93.16;100609.53;4991066;28;47628;-76
2023/03/30 01:23:42;;;;;;;;;2.00;2.00;;;;;17.97;93.43;100612.31;4986902;28;45387;-76
2023/03/30 01:26:30;;;;;;;;;2.00;2.00;;;;;17.99;93.58;100612.28;4967752;28;45631;-75
2023/03/30 01:29:00;;;;;;;;;2.33;2.33;;;;;17.97;93.57;100614.09;4993523;28;45435;-76
2023/03/30 01:31:40;;;;;;;;;2.00;2.00;;;;;17.94;93.64;100625.72;4977352;28;46643;-79
2023/03/30 01:34:06;;;;;;;;;2.33;1.00;;;;;17.91;93.55;100624.94;4981102;28;45467;-79
2023/03/30 01:36:54;;;;;;;;;4.00;1.33;;;;;17.83;93.70;100617.06;4994736;28;45535;-78
2023/03/30 01:39:38;;;;;;;;;1.33;1.00;;;;;17.76;94.21;100604.78;4999182;28;45389;-76
2023/03/30 01:42:22;;;;;;;;;3.00;1.33;;;;;17.70;94.85;100643.16;4981084;28;47876;-75
2023/03/30 01:45:03;;;;;;;;;1.00;1.00;;;;;17.66;95.38;100624.56;4997979;28;45330;-78
2023/03/30 01:48:05;;;;;;;;;1.00;1.00;;;;;17.61;95.70;100619.31;4993027;28;45474;-76
2023/03/30 01:50:42;;;;;;;;;3.00;3.00;;;;;17.59;96.19;100612.25;4984995;28;45737;-76
2023/03/30 01:53:16;;;;;;;;;1.00;1.00;;;;;17.56;96.53;100629.19;4995081;28;47851;-76
2023/03/30 01:55:50;;;;;;;;;1.00;1.00;;;;;17.54;96.70;100617.69;4980570;28;45611;-75
2023/03/30 01:58:32;;;;;;;;;2.00;2.00;;;;;17.49;97.55;100611.56;4975657;28;45433;-76
2023/03/30 02:01:00;;;;;;;;;3.00;1.00;;;;;17.45;96.93;100618.75;4976380;28;45327;-76
2023/03/30 02:03:31;;;;;;;;;1.00;1.00;;;;;17.42;97.33;100609.94;4979783;28;45598;-75
2023/03/30 02:06:02;;;;;;;;;4.67;2.00;;;;;17.41;97.69;100600.16;4997809;28;45369;-75
2023/03/30 02:08:30;;;;;;;;;1.00;1.00;;;;;17.40;97.69;100611.75;4991675;28;45465;-75
2023/03/30 02:10:57;;;;;;;;;1.00;1.00;;;;;17.42;97.45;100609.94;4980255;28;45676;-76
2023/03/30 02:13:25;;;;;;;;;4.67;2.33;;;;;17.40;97.78;100646.44;4997658;28;46403;-78
2023/03/30 02:15:55;;;;;;;;;1.33;1.33;;;;;17.38;98.29;100627.81;4980479;28;45339;-78
2023/03/30 02:18:21;;;;;;;;;1.67;1.00;;;;;17.36;98.29;100650.97;4980266;28;45492;-78
2023/03/30 02:20:48;;;;;;;;;2.33;1.00;;;;;17.34;98.62;100665.25;4997518;28;61213;-75
2023/03/30 02:23:16;;;;;;;;;1.00;1.00;;;;;17.32;99.14;100657.28;4995856;28;45682;-76
2023/03/30 02:25:42;;;;;;;;;3.00;1.67;;;;;17.31;98.98;100662.63;4995613;28;45504;-76
2023/03/30 02:28:08;;;;;;;;;1.67;1.00;;;;;17.27;98.80;100652.03;4992888;28;45861;-75
2023/03/30 02:30:37;;;;;;;;;1.00;1.00;;;;;17.25;98.95;100636.94;4997978;28;45828;-76
2023/03/30 02:33:02;;;;;;;;;1.00;1.00;;;;;17.23;99.08;100630.78;4979765;28;46491;-75
2023/03/30 02:35:54;;;;;;;;;2.00;1.33;;;;;17.20;98.92;100636.16;4979770;28;64682;-76
2023/03/30 02:38:37;;;;;;;;;7.67;1.00;;;;;17.19;99.45;100667.28;4979674;28;45492;-76
2023/03/30 02:41:14;;;;;;;;;1.00;1.00;;;;;17.16;99.25;100678.03;4995435;28;45610;-76
2023/03/30 02:43:50;;;;;;;;;1.00;1.00;;;;;17.12;99.24;100683.47;4996830;28;46657;-75
2023/03/30 02:46:43;;;;;;;;;1.00;1.00;;;;;17.07;100.00;100677.31;4979815;28;45546;-75
2023/03/30 02:49:16;;;;;;;;;1.33;1.00;;;;;17.02;100.00;100690.75;4995535;28;45467;-78
2023/03/30 02:52:08;;;;;;;;;1.00;1.00;;;;;16.99;100.00;100702.38;4980401;28;45587;-75
2023/03/30 02:54:33;;;;;;;;;1.00;1.00;;;;;16.97;100.00;100703.28;4996689;28;47511;-75
2023/03/30 02:57:06;;;;;;;;;2.00;2.00;;;;;16.91;100.00;100704.28;4996507;28;45433;-78
2023/03/30 02:59:42;;;;;;;;;1.00;1.00;;;;;16.87;100.00;100685.66;4995859;28;46685;-78
2023/03/30 03:02:12;;;;;;;;;2.00;1.00;;;;;16.85;100.00;100704.38;4980209;28;45394;-78
2023/03/30 03:04:42;;;;;;;;;1.00;1.00;;;;;16.81;100.00;100702.66;4979737;28;46611;-76
2023/03/30 03:07:08;;;;;;;;;2.00;1.00;;;;;16.76;100.00;100699.19;4961424;28;45547;-75
2023/03/30 03:09:34;;;;;;;;;4.00;1.67;;;;;16.74;100.00;100707.22;4994892;28;45467;-76
2023/03/30 03:11:59;;;;;;;;;1.00;1.00;;;;;16.71;100.00;100685.94;4996919;28;58240;-78
2023/03/30 03:14:25;;;;;;;;;1.00;1.00;;;;;16.68;100.00;100674.41;4996100;28;47097;-75
2023/03/30 03:16:50;;;;;;;;;3.67;1.00;;;;;16.69;100.00;100687.72;4991023;28;45716;-78
2023/03/30 03:19:16;;;;;;;;;2.00;1.00;;;;;16.68;100.00;100695.75;4997694;28;45508;-78
2023/03/30 03:21:41;;;;;;;;;2.67;1.00;;;;;16.68;100.00;100690.41;4997443;28;45476;-78
2023/03/30 03:24:07;;;;;;;;;1.00;1.00;;;;;16.63;100.00;100671.81;4994011;28;62373;-75
2023/03/30 03:26:32;;;;;;;;;0.00;0.00;;;;;16.62;100.00;100671.81;4996637;28;45475;-75
2023/03/30 03:28:58;;;;;;;;;2.33;1.00;;;;;16.62;100.00;100688.72;4997021;28;45170;-75
2023/03/30 03:31:25;;;;;;;;;2.00;1.00;;;;;16.62;100.00;100685.16;4995681;28;45517;-75
2023/03/30 03:33:51;;;;;;;;;0.00;0.00;;;;;16.58;100.00;100684.34;4996105;28;47078;-75
2023/03/30 03:36:16;;;;;;;;;3.00;2.00;;;;;16.55;100.00;100684.38;4992495;28;46104;-75
2023/03/30 03:38:42;;;;;;;;;1.00;1.00;;;;;16.56;100.00;100687.94;4993616;28;60126;-78
2023/03/30 03:41:08;;;;;;;;;1.67;1.00;;;;;16.52;100.00;100680.91;4990606;28;45618;-78
2023/03/30 03:43:33;;;;;;;;;0.00;0.00;;;;;16.44;100.00;100679.22;4996533;28;46478;-75
2023/03/30 03:45:59;;;;;;;;;1.00;1.00;;;;;16.40;100.00;100688.16;4995814;28;45421;-75
2023/03/30 03:48:24;;;;;;;;;0.00;0.00;;;;;16.36;100.00;100682.94;4997462;28;45476;-78
2023/03/30 03:50:54;;;;;;;;;1.00;1.00;;;;;16.31;100.00;100690.97;4996805;28;45738;-78
2023/03/30 03:53:20;;;;;;;;;2.00;0.00;;;;;16.30;100.00;100693.66;4995861;28;47442;-76
2023/03/30 03:55:45;;;;;;;;;2.33;0.67;;;;;16.26;100.00;100683.97;4994390;28;45451;-76
2023/03/30 03:58:11;;;;;;;;;2.00;1.00;;;;;16.22;100.00;100688.44;4997411;28;45345;-75
2023/03/30 04:00:37;;;;;;;;;1.00;1.00;;;;;16.21;100.00;100687.56;4995721;28;45397;-76
2023/03/30 04:03:03;;;;;;;;;2.67;1.00;;;;;16.18;100.00;100700.03;4996685;28;46740;-76
2023/03/30 04:05:29;;;;;;;;;5.33;1.00;;;;;16.17;100.00;100699.16;4993605;28;45486;-76
2023/03/30 04:07:55;;;;;;;;;4.00;1.00;;;;;16.16;100.00;100705.41;4996743;28;45754;-75
2023/03/30 04:10:21;;;;;;;;;0.33;0.33;;;;;16.15;100.00;100695.66;4996558;28;45570;-79
2023/03/30 04:12:46;;;;;;;;;2.00;0.67;;;;;16.13;100.00;100691.22;4996471;28;46517;-78
2023/03/30 04:15:12;;;;;;;;;0.67;0.67;;;;;16.16;100.00;100691.19;4992811;28;45378;-76
2023/03/30 04:17:37;;;;;;;;;1.00;1.00;;;;;16.12;100.00;100682.38;4976005;28;45416;-76
2023/03/30 04:20:04;;;;;;;;;0.33;0.33;;;;;16.12;100.00;100690.34;4991073;28;59671;-79
2023/03/30 04:22:32;;;;;;;;;4.67;1.00;;;;;16.10;100.00;100683.31;4996546;28;45981;-75
2023/03/30 04:24:58;;;;;;;;;1.00;1.00;;;;;16.07;100.00;100683.34;4976464;28;45590;-78
2023/03/30 04:27:27;;;;;;;;;1.00;1.00;;;;;16.03;100.00;100682.47;4996530;28;45476;-78
2023/03/30 04:30:00;;;;;;;;;2.67;1.00;;;;;16.02;100.00;100696.72;4975335;28;45596;-78
2023/03/30 04:32:26;;;;;;;;;0.33;0.33;;;;;16.03;100.00;100690.47;4995711;28;46388;-78
2023/03/30 04:34:53;;;;;;;;;0.00;0.00;;;;;16.01;100.00;100704.72;4996263;28;45477;-75
2023/03/30 04:37:29;;;;;;;;;3.00;1.00;;;;;15.98;100.00;100706.53;4996029;28;45461;-78
2023/03/30 04:39:56;;;;;;;;;0.00;0.00;;;;;15.96;100.00;100702.13;4995901;28;45894;-79
2023/03/30 04:42:28;;;;;;;;;1.67;0.00;;;;;15.95;100.00;100698.59;4996055;28;47692;-76
2023/03/30 04:44:54;;;;;;;;;3.33;1.00;;;;;15.96;100.00;100710.09;4996126;28;45234;-78
2023/03/30 04:47:20;;;;;;;;;3.33;1.00;;;;;15.95;100.00;100700.38;4995371;28;45421;-78
2023/03/30 04:49:45;;;;;;;;;2.00;1.00;;;;;15.92;100.00;100697.72;4994825;28;55929;-75
2023/03/30 04:52:10;;;;;;;;;4.00;1.00;;;;;15.90;100.00;100694.22;4993120;28;47429;-75
2023/03/30 04:54:36;;;;;;;;;2.00;1.00;;;;;15.85;100.00;100702.25;4993776;28;45413;-78
2023/03/30 04:57:01;;;;;;;;;1.33;1.33;;;;;15.84;100.00;100707.63;4992399;28;65663;-78
2023/03/30 04:59:26;;;;;;;;;3.67;0.00;;;;;15.80;100.00;100711.22;4995524;28;45325;-78
2023/03/30 05:01:52;;;;;;;;;0.67;0.67;;;;;15.78;100.00;100713.91;4994900;28;68221;-78
2023/03/30 05:04:17;;;;;;;;;2.00;2.00;;;;;15.79;100.00;100717.44;4994642;28;45459;-75
2023/03/30 05:06:43;;;;;;;;;1.00;1.00;;;;;15.76;100.00;100718.34;4994721;28;64879;-75
2023/03/30 05:09:08;;;;;;;;;0.00;0.00;;;;;15.74;100.00;100721.94;4995169;28;45523;-78
2023/03/30 05:11:33;;;;;;;;;3.00;1.00;;;;;15.72;100.00;100719.31;4995402;28;48071;-78
2023/03/30 05:13:59;;;;;;;;;3.00;1.00;;;;;15.75;100.00;100731.69;4995509;28;45484;-78
2023/03/30 05:16:24;;;;;;;;;1.00;0.00;;;;;15.75;100.00;100721.91;4994534;28;61083;-75
2023/03/30 05:18:49;;;;;;;;;1.33;0.33;;;;;15.78;100.00;100736.97;4995127;28;60557;-78
2023/03/30 05:21:15;;;;;;;;;1.67;1.00;;;;;15.79;100.00;100733.41;4994118;28;47481;-78
2023/03/30 05:23:41;;;;;;;;;3.33;0.67;;;;;15.83;100.00;100740.47;4994400;28;64013;-78
2023/03/30 05:26:07;;;;;;;;;0.00;0.00;;;;;15.82;100.00;100741.34;4994875;28;47181;-78
2023/03/30 05:28:33;;;;;;;;;1.33;1.00;;;;;15.81;100.00;100747.56;4992626;28;45484;-78
2023/03/30 05:30:58;;;;;;;;;1.33;0.00;;;;;15.83;100.00;100748.47;4975565;28;46569;-78
2023/03/30 05:33:24;;;;;;;;;3.00;0.33;;;;;15.81;100.00;100750.25;4994935;28;68849;-75
2023/03/30 05:35:50;;;;;;;;;1.00;1.00;;;;;15.83;100.00;100756.44;4994154;28;62922;-78
2023/03/30 05:38:16;;;;;;;;;1.00;1.00;;;;;15.83;100.00;100756.44;4995989;28;45301;-78
2023/03/30 05:40:41;;;;;;;;;1.33;1.00;;;;;15.80;100.00;100754.69;4994530;28;45698;-78
2023/03/30 05:43:07;;;;;;;;;1.67;1.67;;;;;15.78;100.00;100747.63;4994256;28;45417;-78
2023/03/30 05:45:32;;;;;;;;;1.67;1.00;;;;;15.78;100.00;100755.63;4994386;28;56048;-78
2023/03/30 05:47:57;;;;;;;;;3.00;1.00;;;;;15.77;100.00;100760.06;4994092;28;61886;-78
2023/03/30 05:50:23;;;;;;;;;4.00;1.00;;;;;15.79;100.00;100760.03;4993340;28;67970;-77
2023/03/30 05:52:48;;;;;;;;;3.00;1.33;;;;;15.83;100.00;100761.78;4995070;28;45501;-77
2023/03/30 05:55:14;;;;;;;;;3.00;1.67;;;;;15.84;100.00;100768.84;4977773;28;45314;-77
2023/03/30 05:57:40;;;;;;;;;1.00;1.00;;;;;15.82;100.00;100770.63;4994834;28;45647;-78
2023/03/30 06:00:12;;;;;;;;;2.33;1.00;;;;;15.84;100.00;100776.84;4990867;28;47279;-77
2023/03/30 06:02:37;;;;;;;;;5.00;2.00;;;;;15.83;100.00;100767.97;4991914;28;45404;-78
2023/03/30 06:05:03;;;;;;;;;2.00;1.00;;;;;15.85;100.00;100776.81;4995065;28;45476;-77
2023/03/30 06:07:29;;;;;;;;;2.67;1.00;;;;;15.84;100.00;100775.06;4973444;28;45657;-77
2023/03/30 06:09:54;;;;;;;;;2.67;1.00;;;;;15.86;100.00;100796.31;4998346;28;46685;-77
2023/03/30 06:12:20;;;;;;;;;3.33;0.00;;;;;15.86;100.00;100786.56;4997873;28;45983;-78
2023/03/30 06:14:45;;;;;;;;;0.00;0.00;;;;;15.88;100.00;100792.78;4978433;28;45617;-77
2023/03/30 06:17:12;;;;;;;;;3.00;1.33;;;;;15.91;100.00;100797.16;4993627;28;46634;-77
2023/03/30 06:19:38;;;;;;;;;4.00;1.33;;;;;15.91;100.00;100803.38;4993922;28;47576;-77
2023/03/30 06:22:04;;;;;;;;;3.00;1.00;;;;;15.96;100.00;100805.97;4997062;28;45436;-77
2023/03/30 06:24:29;;;;;;;;;2.00;0.33;;;;;15.98;100.00;100809.53;4993063;28;45603;-77
2023/03/30 06:26:55;;;;;;;;;1.00;1.00;;;;;16.02;100.00;100807.69;4996173;28;45507;-77
2023/03/30 06:29:21;;;;;;;;;3.33;1.33;;;;;16.04;100.00;100828.09;4995861;28;46572;-77
2023/03/30 06:31:46;;;;;;;;;1.33;0.00;;;;;16.07;100.00;100814.72;4992768;28;45412;-77
2023/03/30 06:34:12;;;;;;;;;2.00;0.67;;;;;16.10;100.00;100814.69;4987655;28;45564;-77
2023/03/30 06:36:37;;;;;;;;;2.00;1.00;;;;;16.11;100.00;100820.91;4984995;28;45735;-78
2023/03/30 06:39:04;;;;;;;;;1.00;1.00;;;;;16.13;100.00;100824.41;4982996;28;64168;-77
2023/03/30 06:41:30;;;;;;;;;4.33;2.00;;;;;16.16;100.00;100840.38;4986032;28;45809;-78
2023/03/30 06:43:55;;;;;;;;;0.33;0.33;;;;;16.15;100.00;100838.63;4978115;28;45474;-77
2023/03/30 06:46:20;;;;;;;;;0.67;0.00;;;;;16.18;100.00;100843.91;4967311;28;45425;-78
2023/03/30 06:48:46;;;;;;;;;1.67;1.00;;;;;16.20;100.00;100845.66;4982254;28;70025;-77
2023/03/30 06:51:13;;;;;;;;;1.00;1.00;;;;;16.19;100.00;100843.91;4984151;28;46716;-78
2023/03/30 06:53:38;;;;;;;;;1.33;1.00;;;;;16.23;100.00;100852.72;4964334;28;45450;-78
2023/03/30 06:56:04;;;;;;;;;2.00;1.67;;;;;16.26;100.00;100855.38;4989126;28;45652;-77
2023/03/30 06:58:30;;;;;;;;;3.00;0.00;;;;;16.24;100.00;100862.47;4994988;28;46612;-77
2023/03/30 07:00:55;;;;;;;;;2.00;1.00;;;;;16.24;100.00;100858.06;4994878;28;45615;-78
2023/03/30 07:03:21;;;;;;;;;4.00;1.00;;;;;16.28;100.00;100860.66;4991369;28;45364;-78
2023/03/30 07:05:48;;;;;;;;;5.33;1.67;;;;;16.31;100.00;100866.84;4992522;28;45511;-78
2023/03/30 07:08:13;;;;;;;;;0.67;0.67;;;;;16.32;100.00;100867.72;4972393;28;46873;-78
2023/03/30 07:10:39;;;;;;;;;4.67;1.67;;;;;16.32;100.00;100873.06;4975706;28;45507;-77
2023/03/30 07:13:06;;;;;;;;;4.00;1.00;;;;;16.34;100.00;100871.25;4996600;28;45543;-78
2023/03/30 07:15:32;;;;;;;;;1.00;1.00;;;;;16.36;100.00;100878.34;5006453;28;45523;-78
2023/03/30 07:17:57;;;;;;;;;2.00;2.00;;;;;16.40;100.00;100876.50;4993435;28;45404;-79
2023/03/30 07:20:22;;;;;;;;;2.00;2.00;;;;;16.42;100.00;100882.72;4987769;28;45495;-79
2023/03/30 07:22:48;;;;;;;;;0.00;0.00;;;;;16.44;100.00;100872.91;4980344;28;63461;-79
2023/03/30 07:25:13;;;;;;;;;4.00;1.00;;;;;16.50;100.00;100872.81;4983825;28;52007;-78
2023/03/30 07:27:39;;;;;;;;;0.33;0.33;;;;;16.53;100.00;100878.13;4984081;28;70568;-78
2023/03/30 07:30:06;;;;;;;;;3.00;1.00;;;;;16.56;100.00;100888.72;4983545;28;45536;-78
2023/03/30 07:32:32;;;;;;;;;4.67;1.67;;;;;16.59;100.00;100882.50;4971201;28;45556;-78
2023/03/30 07:34:57;;;;;;;;;5.00;1.00;;;;;16.60;100.00;100882.47;4969672;28;45709;-78
2023/03/30 07:37:23;;;;;;;;;2.00;0.67;;;;;16.62;100.00;100882.44;4979621;28;45484;-78
2023/03/30 07:39:49;;;;;;;;;4.00;2.00;;;;;16.63;100.00;100885.09;4995323;28;45389;-75
2023/03/30 07:42:14;;;;;;;;;2.00;1.00;;;;;16.62;100.00;100883.34;4995959;28;45439;-76
2023/03/30 07:44:40;;;;;;;;;3.00;1.00;;;;;16.63;100.00;100884.22;4995441;28;45448;-78
2023/03/30 07:47:05;;;;;;;;;2.00;1.00;;;;;16.66;100.00;100889.50;4993755;28;47947;-77
2023/03/30 07:49:31;;;;;;;;;3.00;3.00;;;;;16.66;100.00;100885.03;4978280;28;45577;-77
2023/03/30 07:51:56;;;;;;;;;1.00;1.00;;;;;16.71;100.00;100895.69;4993028;28;45780;-79
2023/03/30 07:54:22;;;;;;;;;1.33;1.00;;;;;16.68;100.00;100888.59;4987750;28;48102;-77
2023/03/30 07:56:51;;;;;;;;;2.00;0.00;;;;;16.76;100.00;100893.84;4993770;28;49631;-77
2023/03/30 07:59:18;;;;;;;;;3.00;1.00;;;;;16.77;100.00;100895.59;4993544;28;45645;-78
2023/03/30 08:01:45;;;;;;;;;1.67;1.00;;;;;16.72;100.00;100886.78;4994475;28;45459;-78
2023/03/30 08:04:12;;;;;;;;;3.00;1.00;;;;;16.68;100.00;100885.03;4995060;28;45552;-77
2023/03/30 08:06:37;;;;;;;;;1.33;1.00;;;;;16.61;100.00;100892.22;4990152;28;45842;-78
2023/03/30 08:09:03;;;;;;;;;4.00;1.00;;;;;16.59;100.00;100895.81;4976609;28;45469;-78
2023/03/30 08:11:29;;;;;;;;;3.00;0.33;;;;;16.54;100.00;100903.00;4993132;28;45535;-77
2023/03/30 08:13:54;;;;;;;;;4.67;1.00;;;;;16.50;100.00;100912.78;4985060;28;45778;-79
2023/03/30 08:16:19;;;;;;;;;1.33;1.00;;;;;16.48;100.00;100909.28;4987124;28;64606;-79
2023/03/30 08:18:46;;;;;;;;;2.67;1.00;;;;;16.51;100.00;100909.22;4989109;28;45572;-80
2023/03/30 08:21:11;;;;;;;;;1.33;1.00;;;;;16.59;100.00;100922.47;4992309;28;45710;-79
2023/03/30 08:23:37;;;;;;;;;3.00;0.00;;;;;16.67;100.00;100933.91;4993124;28;46538;-78
2023/03/30 08:26:02;;;;;;;;;2.67;1.00;;;;;16.82;100.00;100923.09;4972181;28;45955;-80
2023/03/30 08:28:28;;;;;;;;;2.00;0.00;;;;;16.97;100.00;100927.34;4988072;28;45497;-78
2023/03/30 08:30:53;;;;;;;;;3.33;1.00;;;;;17.04;100.00;100939.69;4979459;28;45602;-79
2023/03/30 08:33:19;;;;;;;;;2.67;0.67;;;;;17.05;100.00;100936.13;4980619;28;50216;-80
2023/03/30 08:35:46;;;;;;;;;1.33;1.33;;;;;17.03;100.00;100952.13;4967130;28;47858;-80
2023/03/30 08:38:16;;;;;;;;;1.67;1.67;;;;;16.98;100.00;100948.66;4991730;28;45377;-78
2023/03/30 08:40:42;;;;;;;;;5.67;2.00;;;;;17.05;100.00;100941.47;4964298;28;45321;-79
2023/03/30 08:43:34;;;;;;;;;3.67;1.00;;;;;17.13;100.00;100950.22;4965137;28;45511;-80
2023/03/30 08:46:00;;;;;;;;;4.67;1.00;;;;;17.18;100.00;100955.50;4987880;28;46918;-78
2023/03/30 08:48:28;;;;;;;;;1.00;1.00;;;;;17.20;100.00;100961.69;4985457;28;46500;-78
2023/03/30 08:51:11;;;;;;;;;4.00;1.00;;;;;17.25;100.00;100958.06;4967450;28;45509;-79
2023/03/30 08:53:36;;;;;;;;;2.33;1.00;;;;;17.29;100.00;100961.56;4982301;28;45477;-78
2023/03/30 08:56:22;;;;;;;;;3.67;1.00;;;;;17.35;100.00;100960.59;4984053;28;71592;-77
2023/03/30 08:59:05;;;;;;;;;0.00;0.00;;;;;17.39;100.00;100963.19;4961543;28;45721;-77
2023/03/30 09:04:26;;;;;;;;;3.00;3.00;;;;;17.41;100.00;100973.84;5092244;22;63783;-78
2023/03/30 09:06:54;;;;;;;;;1.33;1.00;;;;;17.39;100.00;100956.97;4987382;28;47793;-78
2023/03/30 09:09:27;;;;;;;;;4.00;1.00;;;;;17.34;100.00;100970.41;4968838;28;45394;-77
2023/03/30 09:12:04;;;;;;;;;3.33;1.33;;;;;17.29;100.00;100975.78;4971352;28;46456;-75
2023/03/30 09:14:39;;;;;;;;;3.00;1.00;;;;;17.32;100.00;100971.34;4998908;28;45436;-76
2023/03/30 09:17:14;;;;;;;;;6.67;1.00;;;;;17.34;100.00;100969.50;4973215;28;46578;-78
2023/03/30 09:19:50;;;;;;;;;4.33;3.00;;;;;17.35;100.00;100981.94;4975513;28;45565;-78
2023/03/30 09:22:17;;;;;;;;;5.00;2.00;;;;;17.36;100.00;100979.25;4987626;28;45441;-81
2023/03/30 09:24:42;;;;;;;;;2.00;1.00;;;;;17.38;100.00;100977.47;4971702;28;45644;-79
2023/03/30 09:27:11;;;;;;;;;6.67;2.00;;;;;17.45;100.00;100979.13;4991055;28;46047;-77
2023/03/30 09:29:46;;;;;;;;;1.00;1.00;;;;;17.52;100.00;100975.47;4984703;28;45424;-79
2023/03/30 09:32:18;;;;;;;;;6.33;2.00;;;;;17.58;100.00;100974.50;4962546;28;45570;-78
2023/03/30 09:35:11;;;;;;;;;7.33;0.00;;;;;17.66;100.00;100980.59;4962756;28;45616;-78
2023/03/30 09:37:36;;;;;;;;;2.00;1.00;;;;;17.75;100.00;100972.47;4982522;28;46577;-79
2023/03/30 09:40:37;;;;;;;;;3.33;1.33;;;;;17.84;100.00;100979.44;4984923;28;57391;-80
2023/03/30 09:43:08;;;;;;;;;5.00;2.00;;;;;17.89;100.00;100990.03;4971756;28;45406;-79
2023/03/30 09:45:35;;;;;;;;;3.67;1.67;;;;;17.89;100.00;100982.91;4982848;28;45431;-82
2023/03/30 09:48:06;;;;;;;;;1.00;1.00;;;;;17.91;100.00;100989.13;4950610;28;68400;-77
2023/03/30 09:50:36;;;;;;;;;6.00;2.00;;;;;17.93;100.00;100992.63;4967390;28;45500;-80
2023/03/30 09:53:23;;;;;;;;;4.00;1.00;;;;;17.93;100.00;100983.75;4983010;28;45512;-82
2023/03/30 09:55:59;;;;;;;;;3.33;1.67;;;;;17.94;100.00;100991.72;4968566;28;45450;-81
2023/03/30 09:58:28;;;;;;;;;3.67;1.00;;;;;17.99;100.00;100994.31;4986414;28;48549;-78
2023/03/30 10:01:07;;;;;;;;;4.33;1.00;;;;;18.00;100.00;100994.31;4983893;28;45592;-78
2023/03/30 10:03:32;;;;;;;;;1.67;1.33;;;;;17.96;100.00;100997.94;4987333;28;45523;-78
2023/03/30 10:06:01;;;;;;;;;5.00;1.00;;;;;17.92;100.00;100992.69;4985956;28;45506;-78
2023/03/30 10:08:27;;;;;;;;;3.67;1.00;;;;;17.98;100.00;100993.44;4975605;28;46686;-79
2023/03/30 10:10:54;;;;;;;;;6.00;0.00;;;;;18.11;100.00;101007.50;4971750;28;67689;-78
2023/03/30 10:13:31;;;;;;;;;2.00;1.67;;;;;18.22;100.00;101000.19;4979226;28;45909;-79
2023/03/30 10:16:03;;;;;;;;;6.67;2.00;;;;;18.36;100.00;100993.69;4995295;28;45279;-78
2023/03/30 10:18:52;;;;;;;;;3.67;2.00;;;;;18.45;100.00;101005.09;4973610;28;46782;-78
2023/03/30 10:21:21;;;;;;;;;4.00;1.00;;;;;18.47;100.00;101005.94;4987695;28;45499;-79
2023/03/30 10:24:02;;;;;;;;;2.33;1.00;;;;;18.50;99.73;100997.88;4990841;28;45350;-77
2023/03/30 10:26:29;;;;;;;;;3.67;2.00;;;;;18.53;98.88;100991.56;4988977;28;45643;-77
2023/03/30 10:29:06;;;;;;;;;4.33;1.33;;;;;18.55;98.45;100985.28;4992263;28;46496;-78
2023/03/30 10:31:36;;;;;;;;;2.00;1.00;;;;;18.60;98.19;100990.56;4988808;28;45456;-76
2023/03/30 10:34:04;;;;;;;;;5.67;1.00;;;;;18.57;97.96;100978.09;4977890;28;45350;-77
2023/03/30 10:36:37;;;;;;;;;2.33;1.00;;;;;18.58;97.59;100984.34;4973271;28;45995;-78
2023/03/30 10:39:06;;;;;;;;;2.33;2.00;;;;;18.61;97.52;100983.41;4975290;28;47340;-75
2023/03/30 10:41:32;;;;;;;;;3.33;1.33;;;;;18.57;97.68;100975.44;4990323;28;45404;-77
2023/03/30 10:44:04;;;;;;;;;3.67;1.00;;;;;18.62;97.39;100986.03;4986388;28;45367;-77
2023/03/30 10:46:30;;;;;;;;;8.00;1.00;;;;;18.65;95.65;100977.97;4976703;28;45481;-76
2023/03/30 10:49:27;;;;;;;;;0.00;0.00;;;;;18.74;95.29;101012.56;4968438;28;65580;-79
2023/03/30 10:52:05;;;;;;;;;1.67;1.00;;;;;18.98;95.14;100976.41;4981089;28;45681;-80
2023/03/30 10:54:55;;;;;;;;;6.00;2.00;;;;;19.15;94.03;100976.06;4977546;28;45512;-75
2023/03/30 10:57:47;;;;;;;;;2.33;1.00;;;;;19.24;91.81;100959.78;4980113;28;45426;-75
2023/03/30 11:00:39;;;;;;;;;2.33;0.33;;;;;19.21;90.98;100967.00;4966393;28;45519;-75
2023/03/30 11:03:11;;;;;;;;;1.00;1.00;;;;;19.12;91.26;100965.41;4976775;28;46535;-74
2023/03/30 11:05:40;;;;;;;;;5.67;2.00;;;;;19.18;91.89;100959.94;4988829;28;45763;-74
2023/03/30 11:08:10;;;;;;;;;3.67;1.00;;;;;19.27;91.98;100959.69;4975390;28;45955;-75
2023/03/30 11:10:39;;;;;;;;;3.33;3.00;;;;;19.44;91.00;100964.69;4993554;28;45841;-75
2023/03/30 11:13:21;;;;;;;;;7.33;1.00;;;;;19.52;89.39;100968.06;4968760;28;45455;-75
2023/03/30 11:15:54;;;;;;;;;0.33;0.33;;;;;19.51;89.75;100966.31;4975397;28;45495;-76
2023/03/30 11:18:22;;;;;;;;;2.67;0.33;;;;;19.59;89.59;100958.97;4953922;28;45585;-74
2023/03/30 11:21:06;;;;;;;;;4.00;1.00;;;;;19.64;88.18;100966.91;4991405;28;46626;-75
2023/03/30 11:23:40;;;;;;;;;4.00;0.33;;;;;19.62;88.53;100958.03;4982462;28;45365;-75
2023/03/30 11:26:41;;;;;;;;;2.00;0.67;;;;;19.61;89.74;100964.31;4980087;28;45456;-75
2023/03/30 11:29:25;;;;;;;;;2.00;0.33;;;;;19.56;89.22;100960.84;4966459;28;45473;-76
2023/03/30 11:32:10;;;;;;;;;2.00;0.67;;;;;19.52;88.99;100960.03;4996188;28;46592;-75
2023/03/30 11:34:54;;;;;;;;;6.00;1.67;;;;;19.45;86.65;100979.84;4979308;28;45553;-75